Terminal Aerodrome Forecast
Issued by NWS

Home | Current Version | Previous Version | Text Only | Print | Product List | Glossary On
Versions: 1 2 3 4 5 6 7 8 9 10 11 12 13 14 15 16 17 18 19 20 21 22 23 24
000
FTUS41 KBOX 181910 AAA
TAFFMH
TAF AMD
KFMH 181910Z 1819/1918 30012G20KT P6SM SCT040
     FM182100 30010KT P6SM SCT250
     FM190700 00000KT P6SM FEW150
     FM191500 19010G21KT P6SM FEW200=

USA.gov is the U.S. government's official web portal to all federal, state and local government web resources and services.